.
WxDataArchive / Data Records for 2011-07-07
2011-07-06 July 2011 2011-07-08

Data Records for Thursday, 07 July 2011

Time	Temp	Chill	HIndex	Humid	Dewpt	 Wind 	HiWind	WindDir	Rain 	Barom 
-----	----	-----	------	-----	-----	------	------	-------	-----	----- 
00:00	74.2	74.2	74.2	64	61.2	0	0	---	0.00	29.951 
00:05	74.0	74.0	74.0	64	61.0	0	0	---	0.00	29.951 
00:10	73.9	73.9	73.9	65	61.4	0	1	68	0.00	29.951 
00:15	73.7	73.7	73.7	65	61.2	0	0	---	0.00	29.954 
00:20	73.5	73.5	73.5	65	61.0	0	0	---	0.00	29.954 
00:25	73.5	73.5	73.5	65	61.0	0	1	68	0.00	29.954 
00:30	73.3	73.3	73.3	65	60.8	0	1	68	0.00	29.955 
00:35	73.3	73.3	73.3	65	60.8	0	0	---	0.00	29.955 
00:40	73.2	73.2	73.2	65	60.7	0	1	68	0.00	29.955 
00:45	73.0	73.0	73.0	65	60.5	0	0	---	0.00	29.953 
00:50	72.7	72.7	72.7	66	60.7	0	0	---	0.00	29.953 
00:55	72.5	72.5	72.5	66	60.5	0	1	68	0.00	29.953 
01:00	72.3	72.3	72.3	66	60.3	0	0	---	0.00	29.949 
01:05	72.1	72.1	72.1	67	60.5	0	0	---	0.00	29.949 
01:10	72.0	72.0	72.0	67	60.4	0	0	---	0.00	29.949 
01:15	71.8	71.8	71.8	68	60.7	0	0	---	0.00	29.947 
01:20	71.6	71.6	71.6	68	60.5	0	0	---	0.00	29.947 
01:25	71.5	71.5	71.5	69	60.8	0	0	---	0.00	29.947 
01:30	71.3	71.3	71.3	69	60.6	0	0	---	0.00	29.945 
01:35	71.1	71.1	71.1	69	60.4	0	0	---	0.00	29.945 
01:40	70.9	70.9	70.9	70	60.6	0	1	68	0.00	29.945 
01:45	70.9	70.9	70.9	70	60.6	0	0	---	0.00	29.940 
01:50	70.8	70.8	70.8	71	60.9	0	0	---	0.00	29.940 
01:55	70.6	70.6	70.6	71	60.7	0	0	---	0.00	29.940 
02:00	70.4	70.4	70.4	72	60.9	0	1	68	0.00	29.941 
02:05	70.4	70.4	70.4	72	60.9	0	1	68	0.00	29.941 
02:10	70.3	70.3	70.3	72	60.8	0	1	68	0.00	29.941 
02:15	70.3	70.3	70.3	72	60.8	0	0	---	0.00	29.941 
02:20	70.3	70.3	70.3	72	60.8	0	0	---	0.00	29.941 
02:25	70.1	70.1	70.1	72	60.6	0	0	---	0.00	29.941 
02:30	69.9	69.9	69.9	72	60.4	0	0	---	0.00	29.941 
02:35	69.8	69.8	69.8	73	60.7	0	0	---	0.00	29.941 
02:40	69.6	69.6	69.6	73	60.6	0	0	---	0.00	29.941 
02:45	69.4	69.4	69.4	73	60.4	0	0	---	0.00	29.942 
02:50	69.3	69.3	69.3	74	60.6	0	0	---	0.00	29.942 
02:55	69.1	69.1	69.1	74	60.5	0	0	---	0.00	29.942 
03:00	69.1	69.1	69.1	74	60.5	0	0	---	0.00	29.943 
03:05	68.9	68.9	68.9	74	60.3	0	0	---	0.00	29.943 
03:10	68.8	68.8	68.8	74	60.2	0	0	---	0.00	29.943 
03:15	68.6	68.6	68.6	74	60.0	0	0	---	0.00	29.945 
03:20	68.6	68.6	68.6	74	60.0	0	0	---	0.00	29.945 
03:25	68.6	68.6	68.6	74	60.0	0	1	68	0.00	29.945 
03:30	68.6	68.6	68.6	74	60.0	0	0	---	0.00	29.947 
03:35	68.4	68.4	68.4	74	59.8	0	0	---	0.00	29.947 
03:40	68.4	68.4	68.4	74	59.8	0	0	---	0.00	29.947 
03:45	68.4	68.4	68.4	74	59.8	0	0	---	0.00	29.945 
03:50	68.3	68.3	68.3	74	59.7	0	0	---	0.00	29.945 
03:55	68.3	68.3	68.3	74	59.7	0	1	68	0.00	29.945 
04:00	68.1	68.1	68.1	74	59.5	0	0	---	0.00	29.943 
04:05	67.9	67.9	67.9	74	59.3	0	0	---	0.00	29.943 
04:10	67.8	67.8	67.8	74	59.2	0	0	---	0.00	29.943 
04:15	67.6	67.6	67.6	74	59.0	0	0	---	0.00	29.943 
04:20	67.4	67.4	67.4	75	59.2	0	0	---	0.00	29.943 
04:25	67.3	67.3	67.3	75	59.1	0	0	---	0.00	29.943 
04:30	67.1	67.1	67.1	75	58.9	0	0	---	0.00	29.945 
04:35	66.9	66.9	66.9	76	59.1	0	0	---	0.00	29.945 
04:40	66.8	66.8	66.8	77	59.3	0	0	---	0.00	29.945 
04:45	66.6	66.6	66.6	77	59.2	0	0	---	0.00	29.950 
04:50	66.6	66.6	66.6	77	59.2	0	0	---	0.00	29.950 
04:55	66.4	66.4	66.4	77	59.0	0	0	---	0.00	29.950 
05:00	66.4	66.4	66.4	76	58.6	0	0	---	0.00	29.950 
05:05	66.3	66.3	66.3	77	58.9	0	0	---	0.00	29.950 
05:10	66.1	66.1	66.1	77	58.7	0	0	---	0.00	29.950 
05:15	66.0	66.0	66.0	77	58.6	0	0	---	0.00	29.948 
05:20	66.0	66.0	66.0	77	58.6	0	0	---	0.00	29.948 
05:25	65.8	65.8	65.8	77	58.4	0	0	---	0.00	29.948 
05:30	65.6	65.6	65.6	78	58.5	0	0	---	0.00	29.951 
05:35	65.5	65.5	65.5	78	58.5	0	0	---	0.00	29.951 
05:40	65.3	65.3	65.3	78	58.3	0	0	---	0.00	29.951 
05:45	65.2	65.2	65.2	79	58.5	0	0	---	0.00	29.952 
05:50	65.2	65.2	65.2	79	58.5	0	0	---	0.00	29.952 
05:55	65.0	65.0	65.0	80	58.7	0	0	---	0.00	29.952 
06:00	65.0	65.0	65.0	80	58.7	0	0	---	0.00	29.959 
06:05	65.0	65.0	65.0	80	58.7	0	0	---	0.00	29.959 
06:10	65.0	65.0	65.0	80	58.7	0	0	---	0.00	29.959 
06:15	64.8	64.8	64.8	80	58.5	0	0	---	0.00	29.960 
06:20	64.8	64.8	64.8	80	58.5	0	0	---	0.00	29.960 
06:25	64.8	64.8	64.8	80	58.5	0	0	---	0.00	29.960 
06:30	64.7	64.7	64.7	80	58.4	0	0	---	0.00	29.962 
06:35	64.8	64.8	64.8	80	58.5	0	0	---	0.00	29.962 
06:40	64.8	64.8	64.8	81	58.8	0	0	---	0.00	29.962 
06:45	64.8	64.8	64.8	80	58.5	0	0	---	0.00	29.961 
06:50	64.8	64.8	64.8	80	58.5	0	0	---	0.00	29.961 
06:55	65.0	65.0	65.0	80	58.7	0	0	---	0.00	29.961 
07:00	65.2	65.2	65.2	80	58.9	0	2	68	0.00	29.953 
07:05	65.5	65.5	65.5	79	58.8	0	2	68	0.00	29.953 
07:10	65.8	65.8	65.8	79	59.1	0	1	68	0.00	29.953 
07:15	66.0	66.0	66.0	79	59.3	0	0	---	0.00	29.958 
07:20	66.0	66.0	66.0	79	59.3	0	1	22	0.00	29.958 
07:25	66.3	66.3	66.3	78	59.2	0	3	22	0.00	29.958 
07:30	66.6	66.6	66.6	77	59.2	1	3	45	0.00	29.958 
07:35	66.9	66.9	66.9	77	59.4	1	2	45	0.00	29.958 
07:40	67.3	67.3	67.3	77	59.8	1	3	45	0.00	29.958 
07:45	67.8	67.8	67.8	76	59.9	1	6	90	0.00	29.952 
07:50	68.1	68.1	68.1	77	60.6	1	4	90	0.00	29.952 
07:55	68.4	68.4	68.4	77	60.9	0	2	90	0.00	29.952 
08:00	68.8	68.8	68.8	76	60.9	0	2	90	0.00	29.956 
08:05	69.3	69.3	69.3	76	61.4	1	5	90	0.00	29.956 
08:10	69.6	69.6	69.6	76	61.7	1	3	90	0.00	29.956 
08:15	69.9	69.9	69.9	76	62.0	3	4	90	0.00	29.960 
08:20	70.1	70.1	70.1	76	62.2	2	6	90	0.00	29.960 
08:25	70.4	70.4	70.4	76	62.5	1	5	90	0.00	29.960 
08:30	70.9	70.9	70.9	75	62.6	1	3	90	0.00	29.963 
08:35	71.6	71.6	71.6	75	63.2	1	2	90	0.00	29.963 
08:40	71.8	71.8	71.8	73	62.7	2	5	90	0.00	29.963 
08:45	71.8	71.8	71.8	74	63.1	1	3	68	0.00	29.964 
08:50	72.1	72.1	72.1	74	63.3	2	4	90	0.00	29.964 
08:55	72.3	72.3	72.3	74	63.5	2	6	90	0.00	29.964 
09:00	73.0	73.0	73.0	73	63.8	1	3	90	0.00	29.962 
09:05	73.5	73.5	73.5	73	64.3	2	5	68	0.00	29.962 
09:10	73.9	73.9	73.9	73	64.7	2	5	90	0.00	29.962 
09:15	74.0	74.0	74.0	72	64.4	1	4	90	0.00	29.963 
09:20	74.6	74.6	74.6	72	65.0	1	4	90	0.00	29.963 
09:25	74.7	74.7	74.7	71	64.7	1	4	90	0.00	29.963 
09:30	74.6	74.6	74.6	71	64.6	2	3	90	0.00	29.966 
09:35	74.2	74.2	74.2	73	65.0	1	3	90	0.00	29.966 
09:40	74.6	74.6	74.6	73	65.4	0	3	90	0.00	29.966 
09:45	75.1	75.1	76.5	73	65.8	1	4	90	0.00	29.969 
09:50	75.4	75.4	77.1	70	64.9	1	4	90	0.00	29.969 
09:55	75.8	75.8	77.4	71	65.7	1	3	90	0.00	29.969 
10:00	76.1	76.1	77.8	70	65.6	0	2	90	0.00	29.969 
10:05	76.1	76.1	77.8	70	65.6	1	3	90	0.00	29.969 
10:10	76.3	76.3	78.0	69	65.4	1	3	90	0.00	29.969 
10:15	76.7	76.7	78.4	69	65.7	1	4	90	0.00	29.972 
10:20	76.8	76.8	78.5	70	66.3	1	4	90	0.00	29.972 
10:25	76.7	76.7	78.4	69	65.7	0	4	90	0.00	29.972 
10:30	76.7	76.7	78.4	70	66.2	1	3	90	0.00	29.973 
10:35	76.7	76.7	78.4	71	66.6	0	3	90	0.00	29.973 
10:40	76.8	76.8	78.5	70	66.3	0	2	90	0.00	29.973 
10:45	77.0	77.0	78.8	69	66.0	0	2	90	0.00	29.974 
10:50	77.2	77.2	79.0	68	65.8	2	4	90	0.00	29.974 
10:55	77.4	77.4	79.2	69	66.4	0	2	90	0.00	29.974 
11:00	77.7	77.7	79.6	66	65.4	1	4	90	0.00	29.973 
11:05	78.3	78.3	80.2	65	65.5	1	3	90	0.00	29.973 
11:10	79.0	79.0	81.0	65	66.2	1	3	90	0.00	29.973 
11:15	79.6	79.6	81.7	64	66.3	0	2	90	0.00	29.970 
11:20	80.3	80.3	82.5	63	66.5	1	3	90	0.00	29.970 
11:25	80.7	80.7	82.7	60	65.5	2	4	90	0.00	29.970 
11:30	81.1	81.1	83.5	62	66.8	0	1	90	0.00	29.970 
11:35	81.4	81.4	83.1	57	64.7	1	3	90	0.00	29.970 
11:40	81.4	81.4	83.4	59	65.7	1	3	90	0.00	29.970 
11:45	81.6	81.6	83.5	58	65.4	1	4	90	0.00	29.964 
11:50	82.0	82.0	83.9	57	65.2	1	3	90	0.00	29.964 
11:55	82.4	82.4	84.1	55	64.6	1	2	90	0.00	29.964 
12:00	82.8	82.8	84.4	54	64.4	0	2	90	0.00	29.961 
12:05	83.8	83.8	86.0	55	65.9	0	3	90	0.00	29.961 
12:10	83.8	83.8	85.3	52	64.3	1	4	90	0.00	29.961 
12:15	84.0	84.0	85.1	50	63.3	1	3	90	0.00	29.959 
12:20	83.8	83.8	85.1	51	63.7	1	3	90	0.00	29.959 
12:25	84.3	84.3	85.7	51	64.2	0	2	90	0.00	29.959 
12:30	84.5	84.5	85.8	50	63.8	0	2	68	0.00	29.958 
12:35	84.5	84.5	85.6	49	63.2	0	2	68	0.00	29.958 
12:40	84.3	84.3	85.1	48	62.4	0	3	270	0.00	29.958 
12:45	84.0	84.0	84.9	49	62.8	1	3	270	0.00	29.958 
12:50	84.0	84.0	84.0	44	59.7	1	3	270	0.00	29.958 
12:55	84.3	84.3	84.9	47	61.8	0	1	270	0.00	29.958 
13:00	84.3	84.3	84.1	43	59.3	1	3	270	0.00	29.956 
13:05	84.9	84.9	84.8	43	59.9	1	3	270	0.00	29.956 
13:10	85.5	85.5	85.7	44	61.1	1	3	0	0.00	29.956 
13:15	85.3	85.3	85.2	43	60.2	1	2	248	0.00	29.955 
13:20	85.3	85.3	85.9	46	62.1	0	2	248	0.00	29.955 
13:25	84.7	84.7	84.7	44	60.3	1	4	248	0.00	29.955 
13:30	84.5	84.5	84.9	46	61.4	1	3	248	0.00	29.951 
13:35	84.9	84.9	85.2	45	61.2	1	2	248	0.00	29.951 
13:40	85.1	85.1	85.0	43	60.1	1	2	292	0.00	29.951 
13:45	85.3	85.3	85.2	43	60.2	1	3	292	0.00	29.944 
13:50	85.5	85.5	85.9	45	61.7	0	3	292	0.00	29.944 
13:55	85.5	85.5	85.7	44	61.1	0	2	292	0.00	29.944 
14:00	86.1	86.1	86.0	42	60.3	0	2	292	0.00	29.937 
14:05	86.5	86.5	85.8	39	58.6	0	1	292	0.00	29.937 
14:10	87.0	87.0	86.9	41	60.4	0	2	315	0.00	29.937 
14:15	86.5	86.5	85.8	39	58.6	1	2	315	0.00	29.934 
14:20	86.5	86.5	86.0	40	59.3	1	4	0	0.00	29.934 
14:25	86.3	86.3	86.0	41	59.8	1	4	112	0.00	29.934 
14:30	86.5	86.5	86.7	43	61.3	0	1	112	0.00	29.927 
14:35	86.3	86.3	85.8	40	59.1	0	1	112	0.00	29.927 
14:40	86.1	86.1	85.8	41	59.6	0	0	---	0.00	29.927 
14:45	85.7	85.7	85.1	40	58.6	0	0	---	0.00	29.924 
14:50	85.5	85.5	84.9	40	58.4	0	2	0	0.00	29.924 
14:55	85.5	85.5	85.1	41	59.1	1	3	0	0.00	29.924 
15:00	85.5	85.5	84.9	40	58.4	0	2	248	0.00	29.914 
15:05	85.3	85.3	85.0	42	59.6	0	1	248	0.00	29.914 
15:10	85.1	85.1	84.6	41	58.7	0	1	248	0.00	29.914 
15:15	85.1	85.1	84.8	42	59.4	0	1	248	0.00	29.912 
15:20	85.1	85.1	84.3	39	57.3	0	1	248	0.00	29.912 
15:25	85.3	85.3	84.8	41	58.9	0	2	248	0.00	29.912 
15:30	85.3	85.3	85.2	43	60.2	0	1	248	0.00	29.905 
15:35	85.1	85.1	84.6	41	58.7	0	2	292	0.00	29.905 
15:40	84.9	84.9	84.8	43	59.9	0	3	292	0.00	29.905 
15:45	85.1	85.1	84.4	40	58.0	1	2	292	0.00	29.900 
15:50	84.7	84.7	84.4	42	59.0	0	3	292	0.00	29.900 
15:55	84.9	84.9	84.6	42	59.2	0	2	292	0.00	29.900 
16:00	85.1	85.1	84.8	42	59.4	0	2	292	0.00	29.892 
16:05	85.1	85.1	85.0	43	60.1	0	3	90	0.00	29.892 
16:10	85.1	85.1	85.4	45	61.3	1	2	90	0.00	29.892 
16:15	85.3	85.3	85.2	43	60.2	0	1	90	0.00	29.886 
16:20	84.7	84.7	84.7	44	60.3	0	1	90	0.00	29.886 
16:25	84.5	84.5	84.5	44	60.2	0	2	90	0.00	29.886 
16:30	84.1	84.1	84.1	44	59.8	0	1	90	0.00	29.883 
16:35	84.1	84.1	84.1	44	59.8	0	1	90	0.00	29.883 
16:40	84.3	84.3	84.5	45	60.6	0	1	90	0.00	29.883 
16:45	84.3	84.3	84.1	43	59.3	0	2	90	0.00	29.881 
16:50	84.3	84.3	84.3	44	60.0	0	2	68	0.00	29.881 
16:55	84.5	84.5	84.7	45	60.8	0	1	68	0.00	29.881 
17:00	84.7	84.7	84.7	44	60.3	0	2	68	0.00	29.877 
17:05	84.9	84.9	85.0	44	60.5	0	2	45	0.00	29.877 
17:10	84.9	84.9	84.8	43	59.9	0	2	45	0.00	29.877 
17:15	84.9	84.9	84.6	42	59.2	0	1	45	0.00	29.872 
17:20	84.9	84.9	84.8	43	59.9	0	1	45	0.00	29.872 
17:25	84.9	84.9	85.0	44	60.5	0	0	---	0.00	29.872 
17:30	85.1	85.1	85.2	44	60.7	0	1	45	0.00	29.870 
17:35	85.3	85.3	85.2	43	60.2	0	2	45	0.00	29.870 
17:40	85.3	85.3	84.8	41	58.9	0	1	45	0.00	29.870 
17:45	85.3	85.3	84.8	41	58.9	0	1	45	0.00	29.867 
17:50	85.3	85.3	85.2	43	60.2	0	1	45	0.00	29.867 
17:55	85.1	85.1	85.0	43	60.1	0	1	45	0.00	29.867 
18:00	85.1	85.1	85.2	44	60.7	0	3	68	0.00	29.865 
18:05	84.9	84.9	84.8	43	59.9	0	2	68	0.00	29.865 
18:10	84.7	84.7	84.4	42	59.0	1	3	68	0.00	29.865 
18:15	84.7	84.7	84.7	44	60.3	0	3	68	0.00	29.858 
18:20	84.7	84.7	84.7	44	60.3	0	1	68	0.00	29.858 
18:25	84.7	84.7	84.7	44	60.3	0	2	68	0.00	29.858 
18:30	84.5	84.5	84.7	45	60.8	0	0	---	0.00	29.856 
18:35	84.3	84.3	84.5	45	60.6	0	0	---	0.00	29.856 
18:40	84.3	84.3	84.1	43	59.3	0	2	68	0.00	29.856 
18:45	84.3	84.3	84.3	44	60.0	0	1	68	0.00	29.854 
18:50	84.3	84.3	84.1	43	59.3	0	1	68	0.00	29.854 
18:55	84.1	84.1	84.1	44	59.8	0	1	68	0.00	29.854 
19:00	84.0	84.0	84.1	45	60.3	0	0	---	0.00	29.855 
19:05	83.8	83.8	84.1	46	60.8	0	1	68	0.00	29.855 
19:10	83.6	83.6	83.9	46	60.6	0	0	---	0.00	29.855 
19:15	83.6	83.6	84.1	47	61.2	0	0	---	0.00	29.850 
19:20	83.4	83.4	84.0	48	61.6	0	0	---	0.00	29.850 
19:25	83.2	83.2	83.8	48	61.4	0	1	68	0.00	29.850 
19:30	83.0	83.0	83.5	48	61.3	0	1	68	0.00	29.851 
19:35	82.8	82.8	83.5	49	61.7	0	0	---	0.00	29.851 
19:40	82.6	82.6	83.3	49	61.5	0	1	68	0.00	29.851 
19:45	82.6	82.6	83.4	50	62.0	0	0	---	0.00	29.852 
19:50	82.4	82.4	83.4	51	62.4	0	0	---	0.00	29.852 
19:55	82.2	82.2	83.1	51	62.2	0	1	68	0.00	29.852 
20:00	82.0	82.0	82.9	51	62.1	0	1	68	0.00	29.853 
20:05	81.8	81.8	82.8	52	62.4	0	1	68	0.00	29.853 
20:10	81.6	81.6	82.8	53	62.8	0	0	---	0.00	29.853 
20:15	81.4	81.4	82.5	53	62.6	0	0	---	0.00	29.848 
20:20	81.2	81.2	82.3	53	62.4	0	0	---	0.00	29.848 
20:25	81.1	81.1	82.3	54	62.9	0	0	---	0.00	29.848 
20:30	80.9	80.9	82.1	54	62.7	0	0	---	0.00	29.840 
20:35	80.7	80.7	81.9	54	62.5	0	0	---	0.00	29.840 
20:40	80.5	80.5	81.8	55	62.8	0	0	---	0.00	29.840 
20:45	80.3	80.3	81.6	55	62.6	0	0	---	0.00	29.840 
20:50	80.1	80.1	81.5	56	63.0	0	0	---	0.00	29.840 
20:55	79.9	79.9	81.3	56	62.8	0	0	---	0.00	29.840 
21:00	79.6	79.6	81.1	57	63.0	0	0	---	0.00	29.840 
21:05	79.4	79.4	80.9	57	62.8	0	0	---	0.00	29.840 
21:10	79.2	79.2	80.7	58	63.1	0	0	---	0.00	29.840 
21:15	79.0	79.0	80.5	58	62.9	0	0	---	0.00	29.840 
21:20	78.6	78.6	80.2	59	63.1	0	0	---	0.00	29.840 
21:25	78.5	78.5	80.2	60	63.4	0	0	---	0.00	29.840 
21:30	78.3	78.3	80.0	60	63.2	0	0	---	0.00	29.847 
21:35	78.3	78.3	80.0	61	63.7	0	0	---	0.00	29.847 
21:40	78.1	78.1	79.9	62	64.0	0	0	---	0.00	29.847 
21:45	78.1	78.1	79.9	63	64.5	0	0	---	0.00	29.847 
21:50	77.9	77.9	79.7	64	64.7	0	1	68	0.00	29.847 
21:55	77.9	77.9	79.7	65	65.2	0	1	68	0.00	29.847 
22:00	77.9	77.9	79.7	65	65.2	0	3	68	0.00	29.848 
22:05	77.9	77.9	79.7	65	65.2	1	3	68	0.00	29.848 
22:10	77.9	77.9	79.7	65	65.2	1	4	68	0.00	29.848 
22:15	77.9	77.9	79.8	66	65.6	0	2	68	0.00	29.847 
22:20	77.7	77.7	79.6	66	65.4	1	3	68	0.00	29.847 
22:25	77.4	77.4	79.2	67	65.6	0	2	68	0.00	29.847 
22:30	77.2	77.2	79.0	67	65.4	0	1	68	0.00	29.850 
22:35	77.0	77.0	78.8	65	64.3	1	4	68	0.00	29.850 
22:40	77.0	77.0	78.8	64	63.9	2	5	90	0.00	29.850 
22:45	77.0	77.0	78.8	63	63.4	2	3	90	0.00	29.855 
22:50	77.0	77.0	78.8	62	63.0	2	6	90	0.00	29.855 
22:55	76.8	76.8	78.6	62	62.8	1	5	45	0.00	29.855 
23:00	76.8	76.8	78.6	62	62.8	1	2	68	0.00	29.860 
23:05	76.7	76.7	78.5	61	62.2	1	4	68	0.00	29.860 
23:10	76.5	76.5	78.4	59	61.1	2	4	90	0.00	29.860 
23:15	76.3	76.3	78.2	59	60.9	2	4	90	0.00	29.859 
23:20	76.1	76.1	78.1	59	60.7	1	3	90	0.00	29.859 
23:25	76.0	76.0	78.0	59	60.6	1	3	90	0.00	29.859 
23:30	75.8	75.8	77.9	60	60.9	1	3	90	0.00	29.853 
23:35	75.6	75.6	77.7	61	61.2	0	2	90	0.00	29.853 
23:40	75.4	75.4	77.6	61	61.0	1	3	90	0.00	29.853 
23:45	75.4	75.4	77.6	61	61.0	0	2	90	0.00	29.852 
23:50	75.3	75.3	77.5	61	60.9	1	3	90	0.00	29.852 
23:55	75.1	75.1	77.3	62	61.2	1	3	90	0.00	29.852 

CoCoRaHS
IN-AL-39
A2 Web Hosting
Creative Commons License
GoDaddy
search engine by freefind advanced

loaded 2018-11-19 19:03:48 • last modified 2010-11-18 10:43:29
Privacy PolicyDisclaimer
• wx.awcolley.com is powered by PmWiki v.2002016 •
• all content (unless otherwise noted) © 2018 A W Colley